Time;durP1;ratioP1;P1;durP2;ratioP2;P2;SDS_P1;SDS_P2;PMS_P1;PMS_P2;Temp;Humidity;BMP_temperature;BMP_pressure;BME280_temperature;BME280_humidity;BME280_pressure;Samples;Min_cycle;Max_cycle;Signal;HPM_P1;HPM_P2
2021/05/03 00:01:22;;;;;;;6.20;5.50;;;7.60;99.90;;;;;;4921367;29;20214;-80
2021/05/03 00:07:00;;;;;;;6.53;5.80;;;7.50;99.90;;;;;;4922216;29;20316;-84
2021/05/03 00:09:43;;;;;;;5.13;4.63;;;7.40;99.90;;;;;;4933570;28;20197;-88
2021/05/03 00:12:42;;;;;;;4.85;4.45;;;7.30;99.90;;;;;;4936343;29;20307;-85
2021/05/03 00:18:40;;;;;;;6.25;5.75;;;7.10;99.90;;;;;;4918340;29;20222;-86
2021/05/03 00:21:06;;;;;;;6.93;6.22;;;7.00;99.90;;;;;;4905196;29;20273;-84
2021/05/03 00:23:33;;;;;;;8.15;7.25;;;6.90;99.90;;;;;;4925256;29;20266;-85
2021/05/03 00:25:59;;;;;;;7.25;5.80;;;6.90;99.90;;;;;;4924723;29;20704;-84
2021/05/03 00:28:26;;;;;;;7.00;5.13;;;6.80;99.90;;;;;;4925989;29;20211;-84
2021/05/03 00:30:52;;;;;;;7.60;6.05;;;6.80;99.90;;;;;;4922039;29;20213;-84
2021/05/03 00:33:19;;;;;;;7.22;6.53;;;6.60;99.90;;;;;;4922736;29;20237;-84
2021/05/03 00:35:45;;;;;;;6.88;5.88;;;6.50;99.90;;;;;;4919884;29;20206;-84
2021/05/03 00:38:11;;;;;;;7.65;6.30;;;6.40;99.90;;;;;;4922089;29;20207;-84
2021/05/03 00:40:37;;;;;;;6.78;5.90;;;6.30;99.90;;;;;;4921706;29;20277;-84
2021/05/03 00:43:04;;;;;;;8.02;6.82;;;6.20;99.90;;;;;;4921948;29;20252;-84
2021/05/03 00:45:31;;;;;;;7.95;7.22;;;6.20;99.90;;;;;;4922798;29;20226;-86
2021/05/03 00:47:58;;;;;;;8.90;8.13;;;6.20;99.90;;;;;;4923206;29;20665;-84
2021/05/03 00:50:28;;;;;;;6.68;6.03;;;6.10;99.90;;;;;;4922943;29;20218;-86
2021/05/03 00:52:55;;;;;;;8.88;7.65;;;6.10;99.90;;;;;;4923389;29;20364;-84
2021/05/03 00:55:22;;;;;;;7.13;6.53;;;6.10;99.90;;;;;;4923292;29;20202;-85
2021/05/03 00:57:48;;;;;;;9.35;8.23;;;6.10;99.90;;;;;;4923816;29;20217;-86
2021/05/03 01:00:15;;;;;;;8.15;7.35;;;6.00;99.90;;;;;;4924521;29;20215;-85
2021/05/03 01:02:42;;;;;;;6.88;6.28;;;6.00;99.90;;;;;;4921615;29;20290;-84
2021/05/03 01:05:10;;;;;;;7.82;6.75;;;6.00;99.90;;;;;;4920757;29;20217;-84
2021/05/03 01:07:36;;;;;;;7.63;6.78;;;6.00;99.90;;;;;;4921406;29;20206;-84
2021/05/03 01:10:03;;;;;;;7.13;6.20;;;6.00;99.90;;;;;;4919823;29;20259;-84
2021/05/03 01:12:30;;;;;;;7.60;6.88;;;6.00;99.90;;;;;;4920556;29;20230;-85
2021/05/03 01:14:57;;;;;;;6.70;6.20;;;6.00;99.90;;;;;;4920888;29;20210;-84
2021/05/03 01:17:30;;;;;;;7.68;6.97;;;6.10;99.90;;;;;;4920596;29;20221;-84
2021/05/03 01:19:58;;;;;;;7.28;6.57;;;6.20;99.90;;;;;;4921082;29;20303;-85
2021/05/03 01:22:25;;;;;;;8.15;7.32;;;6.10;99.90;;;;;;4922979;29;20234;-85
2021/05/03 01:24:52;;;;;;;10.25;7.50;;;6.20;99.90;;;;;;4924396;29;20563;-85
2021/05/03 01:27:18;;;;;;;9.52;8.30;;;6.20;99.90;;;;;;4924605;29;20234;-84
2021/05/03 01:29:44;;;;;;;8.82;7.25;;;6.20;99.90;;;;;;4923228;29;20245;-84
2021/05/03 01:32:11;;;;;;;9.60;8.60;;;6.30;99.90;;;;;;4922499;29;20233;-85
2021/05/03 01:34:39;;;;;;;7.90;7.18;;;6.30;99.90;;;;;;4922891;29;20210;-84
2021/05/03 01:37:05;;;;;;;8.90;8.00;;;6.30;99.90;;;;;;4922577;29;20596;-84
2021/05/03 01:39:33;;;;;;;8.43;7.30;;;6.20;99.90;;;;;;4921948;29;20577;-84
2021/05/03 01:42:00;;;;;;;9.88;7.40;;;6.30;99.90;;;;;;4922228;29;20206;-84
2021/05/03 01:44:29;;;;;;;9.10;8.30;;;6.10;99.90;;;;;;4922981;29;20211;-85
2021/05/03 01:46:55;;;;;;;9.27;8.45;;;6.10;99.90;;;;;;4921884;29;20245;-84
2021/05/03 01:49:22;;;;;;;9.73;8.77;;;6.00;99.90;;;;;;4923029;29;20214;-85
2021/05/03 01:51:48;;;;;;;10.35;8.55;;;5.90;99.90;;;;;;4923917;29;20217;-85
2021/05/03 01:54:15;;;;;;;10.55;9.60;;;5.90;99.90;;;;;;4924471;29;20220;-84
2021/05/03 01:56:42;;;;;;;10.98;9.05;;;5.90;99.90;;;;;;4924234;29;20742;-84
2021/05/03 01:59:08;;;;;;;9.45;8.38;;;5.90;99.90;;;;;;4924654;29;20214;-84
2021/05/03 02:01:38;;;;;;;11.82;9.98;;;5.80;99.90;;;;;;4922869;29;20301;-84
2021/05/03 02:04:05;;;;;;;9.20;8.30;;;5.80;99.90;;;;;;4921532;29;20606;-84
2021/05/03 02:06:31;;;;;;;9.98;8.98;;;5.70;99.90;;;;;;4921309;29;20226;-84
2021/05/03 02:08:57;;;;;;;11.13;9.98;;;5.60;99.90;;;;;;4924584;29;20210;-85
2021/05/03 02:11:24;;;;;;;8.38;7.43;;;5.50;99.90;;;;;;4925539;29;20210;-85
2021/05/03 02:13:51;;;;;;;10.65;9.57;;;5.50;99.90;;;;;;4925188;29;20243;-85
2021/05/03 02:16:18;;;;;;;9.93;8.95;;;5.40;99.90;;;;;;4924394;29;20214;-85
2021/05/03 02:18:44;;;;;;;10.60;9.60;;;5.40;99.90;;;;;;4924305;29;20213;-86
2021/05/03 02:21:10;;;;;;;11.27;10.10;;;5.30;99.90;;;;;;4925386;29;20210;-85
2021/05/03 02:23:37;;;;;;;10.50;9.50;;;5.30;99.90;;;;;;4925062;29;20230;-85
2021/05/03 02:26:03;;;;;;;10.32;9.32;;;5.30;99.90;;;;;;4925034;29;20241;-85
2021/05/03 02:28:29;;;;;;;11.05;9.48;;;5.30;99.90;;;;;;4923928;29;20687;-84
2021/05/03 02:30:56;;;;;;;17.00;11.40;;;5.20;99.90;;;;;;4923872;29;20226;-84
2021/05/03 02:33:23;;;;;;;10.45;9.52;;;5.10;99.90;;;;;;4924030;29;20235;-85
2021/05/03 02:35:50;;;;;;;10.40;9.40;;;5.00;99.90;;;;;;4924487;29;20693;-84
2021/05/03 02:38:16;;;;;;;13.10;10.80;;;5.00;99.90;;;;;;4924522;29;20302;-85
2021/05/03 02:40:43;;;;;;;10.52;9.52;;;5.00;99.90;;;;;;4920014;29;20210;-84
2021/05/03 02:43:09;;;;;;;11.48;10.27;;;5.00;99.90;;;;;;4919102;29;20230;-84
2021/05/03 02:45:36;;;;;;;10.32;8.98;;;5.00;99.90;;;;;;4919538;29;20322;-84
2021/05/03 02:48:04;;;;;;;14.15;9.70;;;5.00;99.90;;;;;;4919441;29;20611;-85
2021/05/03 02:50:31;;;;;;;11.68;10.35;;;4.90;99.90;;;;;;4921508;29;20210;-85
2021/05/03 02:52:57;;;;;;;11.57;9.65;;;5.00;99.90;;;;;;4926749;29;20230;-84
2021/05/03 02:55:24;;;;;;;11.95;10.75;;;5.00;99.90;;;;;;4927128;29;20215;-84
2021/05/03 02:57:51;;;;;;;13.15;10.75;;;4.90;99.90;;;;;;4926284;29;20234;-84
2021/05/03 03:00:27;;;;;;;11.82;10.25;;;5.00;99.90;;;;;;4927309;29;20207;-84
2021/05/03 03:02:54;;;;;;;11.25;10.25;;;5.00;99.90;;;;;;4927780;29;20246;-84
2021/05/03 03:05:22;;;;;;;11.27;9.93;;;4.90;99.90;;;;;;4926431;29;20229;-84
2021/05/03 03:07:49;;;;;;;12.13;10.98;;;4.90;99.90;;;;;;4923596;29;20214;-84
2021/05/03 03:10:15;;;;;;;12.20;10.90;;;5.00;99.90;;;;;;4925257;29;20221;-85
2021/05/03 03:12:42;;;;;;;11.63;10.43;;;5.00;99.90;;;;;;4924686;29;20236;-84
2021/05/03 03:15:10;;;;;;;12.85;11.50;;;5.00;99.90;;;;;;4926898;29;20214;-84
2021/05/03 03:17:37;;;;;;;11.18;9.48;;;5.00;99.90;;;;;;4938141;29;20221;-86
2021/05/03 03:20:04;;;;;;;15.88;11.45;;;5.00;99.90;;;;;;4937675;29;20206;-85
2021/05/03 03:22:31;;;;;;;13.40;11.88;;;5.00;99.90;;;;;;4932944;29;20226;-84
2021/05/03 03:24:57;;;;;;;13.70;12.13;;;5.00;99.90;;;;;;4920433;29;20210;-84
2021/05/03 03:27:24;;;;;;;12.70;10.73;;;4.90;99.90;;;;;;4921876;29;20234;-84
2021/05/03 03:29:50;;;;;;;13.18;10.90;;;5.00;99.90;;;;;;4923842;29;20210;-84
2021/05/03 03:32:16;;;;;;;14.02;12.63;;;5.10;99.90;;;;;;4923272;29;20645;-84
2021/05/03 03:34:42;;;;;;;12.20;10.90;;;5.10;99.90;;;;;;4923411;29;20216;-84
2021/05/03 03:37:09;;;;;;;11.73;10.50;;;5.10;99.90;;;;;;4923581;29;20211;-84
2021/05/03 03:39:36;;;;;;;13.63;12.23;;;5.10;99.90;;;;;;4923147;29;20214;-84
2021/05/03 03:42:02;;;;;;;13.73;11.50;;;5.00;99.90;;;;;;4922583;29;20214;-85
2021/05/03 03:44:28;;;;;;;15.88;12.90;;;5.00;99.90;;;;;;4926105;29;20677;-84
2021/05/03 03:46:55;;;;;;;12.18;10.90;;;5.10;99.90;;;;;;4923959;29;20231;-84
2021/05/03 03:49:21;;;;;;;13.32;11.90;;;5.10;99.90;;;;;;4923718;29;20206;-84
2021/05/03 03:51:47;;;;;;;12.55;11.30;;;5.10;99.90;;;;;;4923008;29;20273;-84
2021/05/03 03:54:13;;;;;;;13.32;12.02;;;5.10;99.90;;;;;;4923690;29;20244;-84
2021/05/03 03:56:40;;;;;;;11.68;10.30;;;5.10;99.90;;;;;;4923192;29;20236;-84
2021/05/03 03:59:09;;;;;;;13.98;12.18;;;5.20;99.90;;;;;;4935376;28;20250;-88
2021/05/03 04:01:37;;;;;;;13.52;11.27;;;5.20;99.90;;;;;;4940595;29;20214;-87
2021/05/03 04:04:11;;;;;;;11.85;10.65;;;5.30;99.90;;;;;;4931421;29;20297;-84
2021/05/03 04:06:42;;;;;;;12.18;10.98;;;5.30;99.90;;;;;;4922362;29;20229;-84
2021/05/03 04:09:12;;;;;;;12.43;10.90;;;5.30;99.90;;;;;;4922746;29;20199;-84
2021/05/03 04:12:07;;;;;;;13.65;12.25;;;5.30;99.90;;;;;;4922545;29;20221;-84
2021/05/03 04:23:04;;;;;;;11.35;10.25;;;5.50;99.90;;;;;;4919880;29;20229;-84
2021/05/03 04:25:34;;;;;;;11.95;10.75;;;5.50;99.90;;;;;;4919074;29;20194;-84
2021/05/03 04:28:02;;;;;;;12.80;11.60;;;5.50;99.90;;;;;;4922825;29;20296;-83
2021/05/03 04:30:29;;;;;;;14.57;13.18;;;5.50;99.90;;;;;;4920960;29;20225;-85
2021/05/03 04:32:55;;;;;;;12.23;11.13;;;5.50;99.90;;;;;;4922997;29;20238;-84
2021/05/03 04:35:21;;;;;;;11.77;10.57;;;5.50;99.90;;;;;;4924405;29;20590;-85
2021/05/03 04:37:48;;;;;;;13.27;11.93;;;5.50;99.90;;;;;;4925375;29;20214;-85
2021/05/03 04:40:14;;;;;;;14.20;12.10;;;5.50;99.90;;;;;;4924891;29;20269;-84
2021/05/03 04:42:41;;;;;;;12.23;11.05;;;5.50;99.90;;;;;;4924225;29;20230;-85
2021/05/03 04:45:11;;;;;;;14.73;12.10;;;5.50;99.90;;;;;;4924867;29;20210;-85
2021/05/03 04:47:37;;;;;;;11.35;10.25;;;5.50;99.90;;;;;;4924940;29;20321;-85
2021/05/03 04:50:05;;;;;;;12.63;11.50;;;5.50;99.90;;;;;;4925611;29;20273;-84
2021/05/03 04:52:32;;;;;;;13.30;10.63;;;5.50;99.90;;;;;;4925519;29;20242;-85
2021/05/03 04:54:58;;;;;;;13.15;11.77;;;5.60;99.90;;;;;;4925654;29;20215;-84
2021/05/03 04:57:24;;;;;;;13.60;12.30;;;5.60;99.90;;;;;;4925808;29;20214;-86
2021/05/03 04:59:51;;;;;;;13.27;11.88;;;5.60;99.90;;;;;;4926022;29;20206;-86
2021/05/03 05:02:18;;;;;;;11.23;10.13;;;5.50;99.90;;;;;;4926128;29;20234;-86
2021/05/03 05:04:44;;;;;;;13.80;12.43;;;5.50;99.90;;;;;;4926300;29;20686;-85
2021/05/03 05:07:10;;;;;;;13.73;12.43;;;5.50;99.90;;;;;;4925524;29;20245;-85
2021/05/03 05:09:37;;;;;;;11.07;9.98;;;5.50;99.90;;;;;;4925957;29;20216;-85
2021/05/03 05:12:03;;;;;;;15.80;11.65;;;5.60;99.90;;;;;;4925362;29;20250;-85
2021/05/03 05:14:30;;;;;;;12.00;10.82;;;5.60;99.90;;;;;;4924997;29;20206;-85
2021/05/03 05:16:56;;;;;;;12.10;10.90;;;5.60;99.90;;;;;;4926112;29;20206;-85
2021/05/03 05:19:24;;;;;;;14.27;11.07;;;5.60;99.90;;;;;;4925930;29;20297;-85
2021/05/03 05:21:51;;;;;;;12.55;11.25;;;5.60;99.90;;;;;;4924840;29;20214;-84
2021/05/03 05:24:17;;;;;;;11.55;10.45;;;5.70;99.90;;;;;;4925550;29;20217;-87
2021/05/03 05:26:43;;;;;;;11.30;10.10;;;5.70;99.90;;;;;;4925068;29;20324;-85
2021/05/03 05:29:10;;;;;;;12.10;10.80;;;5.70;99.90;;;;;;4925586;29;20625;-84
2021/05/03 05:31:36;;;;;;;12.68;10.65;;;5.70;99.90;;;;;;4925975;29;20214;-85
2021/05/03 05:34:03;;;;;;;10.25;9.27;;;5.80;99.90;;;;;;4925371;29;20282;-86
2021/05/03 05:36:30;;;;;;;12.50;11.35;;;5.80;99.90;;;;;;4924892;29;20258;-85
2021/05/03 05:38:56;;;;;;;10.90;9.90;;;5.80;99.90;;;;;;4925928;29;20297;-85
2021/05/03 05:41:23;;;;;;;10.77;9.70;;;5.90;99.90;;;;;;4924225;29;20260;-84
2021/05/03 05:43:49;;;;;;;12.27;11.07;;;5.80;99.90;;;;;;4922774;29;20266;-84
2021/05/03 05:46:18;;;;;;;12.23;10.52;;;5.90;99.90;;;;;;4921898;29;20226;-84
2021/05/03 05:48:44;;;;;;;10.43;9.43;;;5.90;99.90;;;;;;4921895;29;20238;-83
2021/05/03 05:51:11;;;;;;;12.40;11.15;;;6.00;99.90;;;;;;4922001;29;20216;-84
2021/05/03 05:53:38;;;;;;;11.38;9.80;;;6.10;99.90;;;;;;4921437;29;20230;-84
2021/05/03 05:56:05;;;;;;;10.77;9.68;;;6.10;99.90;;;;;;4922073;29;20210;-84
2021/05/03 05:58:32;;;;;;;11.25;10.05;;;6.20;99.90;;;;;;4922340;29;20215;-84
2021/05/03 06:00:59;;;;;;;12.18;10.98;;;6.30;99.90;;;;;;4922264;29;20273;-84
2021/05/03 06:03:59;;;;;;;;;;;;;;;;;;;;;
2021/05/03 06:06:34;;;;;;;12.65;10.65;;;6.50;99.90;;;;;;4935676;29;20237;-79
2021/05/03 06:09:29;;;;;;;12.63;10.55;;;6.50;99.90;;;;;;4941075;29;20209;-79
2021/05/03 06:11:55;;;;;;;11.13;10.00;;;6.60;99.90;;;;;;4940977;29;20213;-79
2021/05/03 06:14:22;;;;;;;11.23;9.85;;;6.70;99.90;;;;;;4940539;29;20316;-79
2021/05/03 06:16:48;;;;;;;11.13;10.05;;;6.80;99.90;;;;;;4940478;29;20216;-79
2021/05/03 06:19:14;;;;;;;10.40;9.40;;;6.90;99.90;;;;;;4940691;29;20205;-79
2021/05/03 06:21:41;;;;;;;9.98;9.00;;;7.00;99.90;;;;;;4940746;29;20209;-79
2021/05/03 06:24:08;;;;;;;10.32;9.45;;;7.00;99.90;;;;;;4940701;29;20240;-79
2021/05/03 06:26:35;;;;;;;11.48;10.32;;;7.20;99.90;;;;;;4944672;29;20228;-79
2021/05/03 06:29:01;;;;;;;11.43;9.65;;;7.30;99.90;;;;;;4944328;29;20214;-79
2021/05/03 06:31:30;;;;;;;9.98;9.07;;;7.30;99.90;;;;;;4944497;29;20217;-79
2021/05/03 06:33:56;;;;;;;9.77;8.98;;;7.40;99.90;;;;;;4944290;29;20233;-80
2021/05/03 06:36:23;;;;;;;14.30;12.40;;;7.50;99.90;;;;;;4944664;29;20226;-78
2021/05/03 06:38:49;;;;;;;12.95;11.65;;;7.60;99.90;;;;;;4944304;29;20236;-80
2021/05/03 06:41:16;;;;;;;11.52;10.32;;;7.70;99.90;;;;;;4943703;29;20694;-80
2021/05/03 06:43:42;;;;;;;11.52;10.30;;;7.80;99.90;;;;;;4943554;29;20230;-80
2021/05/03 06:46:08;;;;;;;12.23;11.00;;;7.90;99.90;;;;;;4943880;29;20264;-79
2021/05/03 06:48:35;;;;;;;14.02;11.30;;;7.90;99.90;;;;;;4943796;29;20218;-79
2021/05/03 06:51:01;;;;;;;11.40;10.30;;;8.00;99.90;;;;;;4943767;29;20216;-79
2021/05/03 06:53:27;;;;;;;11.00;9.98;;;8.00;99.90;;;;;;4943900;29;20292;-80
2021/05/03 06:55:54;;;;;;;11.30;10.20;;;8.10;99.90;;;;;;4943650;29;20237;-80
2021/05/03 06:58:21;;;;;;;11.40;9.65;;;8.20;99.90;;;;;;4943792;29;20220;-80
2021/05/03 07:00:47;;;;;;;10.98;9.88;;;8.30;99.90;;;;;;4944214;29;20237;-79
2021/05/03 07:03:14;;;;;;;14.25;10.55;;;8.40;99.90;;;;;;4943638;29;20288;-79
2021/05/03 07:05:40;;;;;;;13.30;10.30;;;8.50;99.90;;;;;;4943334;29;20213;-81
2021/05/03 07:08:09;;;;;;;10.57;9.60;;;8.60;99.90;;;;;;4943879;29;20209;-80
2021/05/03 07:10:38;;;;;;;8.75;7.88;;;8.70;99.90;;;;;;4943458;29;20754;-81
2021/05/03 07:13:04;;;;;;;9.10;8.30;;;8.90;99.90;;;;;;4939340;29;20229;-82
2021/05/03 07:15:31;;;;;;;10.07;8.70;;;9.00;99.90;;;;;;4944471;29;20214;-80
2021/05/03 07:17:58;;;;;;;8.95;8.15;;;9.00;99.90;;;;;;4942525;29;20631;-80
2021/05/03 07:20:24;;;;;;;9.20;8.30;;;9.20;99.90;;;;;;4943345;29;20222;-80
2021/05/03 07:22:50;;;;;;;9.73;8.80;;;9.40;99.90;;;;;;4941995;29;20230;-80
2021/05/03 07:25:17;;;;;;;9.25;8.55;;;9.50;99.90;;;;;;4943265;29;20222;-80
2021/05/03 07:27:43;;;;;;;9.35;8.50;;;9.60;99.90;;;;;;4942397;29;20234;-80
2021/05/03 07:30:11;;;;;;;8.43;7.78;;;9.70;99.90;;;;;;4942819;29;20219;-80
2021/05/03 07:32:39;;;;;;;8.90;8.10;;;9.70;99.90;;;;;;4941743;29;20242;-80
2021/05/03 07:35:07;;;;;;;8.30;7.43;;;9.80;99.80;;;;;;4942855;29;20838;-80
2021/05/03 07:37:34;;;;;;;10.93;7.88;;;9.90;99.70;;;;;;4939888;29;20517;-79
2021/05/03 07:40:00;;;;;;;5.97;5.35;;;10.00;98.50;;;;;;4942580;29;20215;-79
2021/05/03 07:42:26;;;;;;;7.10;6.40;;;9.90;95.10;;;;;;4942113;29;20227;-79
2021/05/03 07:44:52;;;;;;;6.45;5.95;;;9.70;95.00;;;;;;4942019;29;20222;-79
2021/05/03 07:47:19;;;;;;;5.75;5.35;;;9.70;94.50;;;;;;4941339;29;20226;-80
2021/05/03 07:49:46;;;;;;;5.97;5.47;;;9.60;93.80;;;;;;4941660;29;20214;-80
2021/05/03 07:52:12;;;;;;;5.10;4.38;;;9.70;93.60;;;;;;4940601;29;20214;-79
2021/05/03 07:54:38;;;;;;;6.68;6.07;;;9.90;93.80;;;;;;4940981;29;20932;-80
2021/05/03 07:57:05;;;;;;;6.82;6.10;;;9.90;93.50;;;;;;4941520;29;20282;-80
2021/05/03 07:59:31;;;;;;;6.72;5.63;;;10.10;94.00;;;;;;4941348;29;20212;-83
2021/05/03 08:01:57;;;;;;;7.15;6.60;;;10.30;94.10;;;;;;4941628;29;20575;-79
2021/05/03 08:04:24;;;;;;;6.40;5.27;;;10.40;94.40;;;;;;4941530;29;20790;-80
2021/05/03 08:06:57;;;;;;;7.50;6.73;;;10.60;92.60;;;;;;4941407;29;20496;-80
2021/05/03 08:09:23;;;;;;;6.03;5.53;;;10.80;91.80;;;;;;4941947;29;20445;-79
2021/05/03 08:11:51;;;;;;;6.40;5.80;;;11.10;92.10;;;;;;4940643;29;21013;-80
2021/05/03 08:14:19;;;;;;;6.60;5.90;;;11.30;91.70;;;;;;4941046;29;20487;-80
2021/05/03 08:16:48;;;;;;;7.22;5.57;;;11.40;90.30;;;;;;4941365;29;20457;-79
2021/05/03 08:19:15;;;;;;;5.17;4.77;;;11.20;88.70;;;;;;4940918;29;20227;-78
2021/05/03 08:21:41;;;;;;;6.70;5.97;;;11.10;89.00;;;;;;4940897;29;20828;-79
2021/05/03 08:24:09;;;;;;;7.10;6.50;;;11.00;89.80;;;;;;4941287;29;20986;-80
2021/05/03 08:26:35;;;;;;;6.97;6.07;;;10.80;89.30;;;;;;4940930;29;20499;-79
2021/05/03 08:29:02;;;;;;;6.73;6.20;;;10.70;89.70;;;;;;4940946;29;20880;-79
2021/05/03 08:31:29;;;;;;;6.00;5.43;;;10.60;90.20;;;;;;4940802;29;20567;-79
2021/05/03 08:33:55;;;;;;;5.90;5.50;;;10.50;88.20;;;;;;4940522;29;20481;-78
2021/05/03 08:36:21;;;;;;;6.85;6.25;;;10.50;89.20;;;;;;4940586;29;20865;-79
2021/05/03 08:38:47;;;;;;;8.97;6.20;;;10.70;87.60;;;;;;4940587;29;20881;-80
2021/05/03 08:41:16;;;;;;;6.93;6.22;;;10.70;88.60;;;;;;4941014;29;20451;-80
2021/05/03 08:43:42;;;;;;;9.53;7.13;;;10.70;91.20;;;;;;4939609;29;20775;-79
2021/05/03 08:46:13;;;;;;;8.10;7.40;;;10.90;92.80;;;;;;4940679;29;20487;-80
2021/05/03 08:48:43;;;;;;;8.70;7.80;;;11.00;92.90;;;;;;4939839;29;20964;-80
2021/05/03 08:51:15;;;;;;;7.97;7.17;;;11.10;93.00;;;;;;4940151;29;20477;-81
2021/05/03 08:53:43;;;;;;;8.75;7.85;;;11.10;93.60;;;;;;4939955;29;20486;-79
2021/05/03 08:56:09;;;;;;;9.80;9.00;;;11.20;93.70;;;;;;4942879;29;20211;-79
2021/05/03 08:58:38;;;;;;;8.10;7.40;;;11.10;92.50;;;;;;4952494;29;20515;-79
2021/05/03 09:01:04;;;;;;;10.47;9.43;;;11.00;92.60;;;;;;4947242;29;20460;-78
2021/05/03 09:03:33;;;;;;;7.87;7.20;;;11.10;93.20;;;;;;4947987;29;20483;-78
2021/05/03 09:06:03;;;;;;;7.67;7.07;;;11.20;92.70;;;;;;4944077;29;20461;-80
2021/05/03 09:08:30;;;;;;;8.43;7.50;;;11.30;91.80;;;;;;4939972;29;20457;-81
2021/05/03 09:10:57;;;;;;;10.10;8.30;;;11.30;91.20;;;;;;4940105;29;20520;-80
2021/05/03 09:13:29;;;;;;;8.30;7.60;;;11.50;92.50;;;;;;4940207;29;20559;-80
2021/05/03 09:16:17;;;;;;;7.87;7.13;;;11.80;91.80;;;;;;4940194;29;20457;-80
2021/05/03 09:18:44;;;;;;;7.80;7.07;;;11.90;91.20;;;;;;4922466;29;20453;-81
2021/05/03 09:21:20;;;;;;;8.63;7.73;;;12.10;91.30;;;;;;4921887;29;20454;-79
2021/05/03 09:24:00;;;;;;;7.77;7.07;;;12.30;91.60;;;;;;4918710;29;20481;-80
2021/05/03 09:26:35;;;;;;;8.33;7.70;;;12.50;91.60;;;;;;4920600;29;20509;-79
2021/05/03 09:29:27;;;;;;;6.80;6.30;;;12.70;90.70;;;;;;4920677;29;20457;-78
2021/05/03 09:31:59;;;;;;;7.37;6.67;;;13.00;90.00;;;;;;4935386;29;20450;-81
2021/05/03 09:34:27;;;;;;;6.80;6.17;;;13.20;86.40;;;;;;4939810;29;20484;-80
2021/05/03 09:37:15;;;;;;;7.80;7.20;;;13.30;85.20;;;;;;4940186;29;20490;-81
2021/05/03 09:39:41;;;;;;;7.43;6.87;;;13.30;85.00;;;;;;4940457;29;20875;-81
2021/05/03 09:42:07;;;;;;;9.17;7.63;;;13.30;84.60;;;;;;4939880;29;20457;-81
2021/05/03 09:44:33;;;;;;;8.00;7.23;;;13.30;82.10;;;;;;4939934;29;20495;-81
2021/05/03 09:47:01;;;;;;;8.77;7.87;;;13.40;83.30;;;;;;4939280;29;20497;-80
2021/05/03 09:49:29;;;;;;;6.63;6.10;;;13.50;83.30;;;;;;4939554;29;20460;-80
2021/05/03 09:51:58;;;;;;;6.70;6.20;;;13.60;82.60;;;;;;4939649;29;20464;-81
2021/05/03 09:54:26;;;;;;;8.10;7.50;;;13.70;82.80;;;;;;4940263;29;20549;-81
2021/05/03 09:56:55;;;;;;;7.50;6.80;;;13.90;82.40;;;;;;4940563;29;20464;-80
2021/05/03 09:59:34;;;;;;;6.30;5.83;;;14.10;80.80;;;;;;4940458;29;20459;-81
2021/05/03 10:02:13;;;;;;;8.03;7.30;;;14.20;78.10;;;;;;4945415;29;20449;-81
2021/05/03 10:04:49;;;;;;;5.57;5.17;;;14.30;81.30;;;;;;4945873;29;20470;-80
2021/05/03 10:07:18;;;;;;;4.27;3.87;;;14.40;76.20;;;;;;4946303;29;20493;-81
2021/05/03 10:09:48;;;;;;;4.30;3.90;;;14.50;68.80;;;;;;4941719;29;20473;-80
2021/05/03 10:12:16;;;;;;;4.77;4.37;;;14.50;69.20;;;;;;4926622;29;20876;-80
2021/05/03 10:14:43;;;;;;;4.40;4.07;;;14.60;68.10;;;;;;4926767;29;20454;-80
2021/05/03 10:17:12;;;;;;;4.30;4.00;;;14.60;66.20;;;;;;4927504;29;20458;-81
2021/05/03 10:19:39;;;;;;;4.70;4.30;;;14.40;65.30;;;;;;4927112;29;20461;-80
2021/05/03 10:22:06;;;;;;;3.90;3.70;;;14.30;65.00;;;;;;4936989;29;20457;-80
2021/05/03 10:24:32;;;;;;;3.67;3.47;;;14.00;64.10;;;;;;4946399;29;20536;-81
2021/05/03 10:26:59;;;;;;;4.13;3.83;;;13.80;63.30;;;;;;4946421;29;20829;-81
2021/05/03 10:29:40;;;;;;;4.00;3.70;;;13.70;65.90;;;;;;4945737;29;20454;-81
2021/05/03 10:32:08;;;;;;;4.50;4.20;;;13.80;66.40;;;;;;4945161;29;20969;-81
2021/05/03 10:34:44;;;;;;;4.13;3.83;;;13.90;67.20;;;;;;4945497;29;20896;-80
2021/05/03 10:37:39;;;;;;;3.43;3.23;;;14.00;64.60;;;;;;4943803;29;20870;-81
2021/05/03 10:40:07;;;;;;;4.07;3.77;;;14.10;62.70;;;;;;4947719;29;20560;-81
2021/05/03 10:42:34;;;;;;;3.67;3.47;;;13.90;63.10;;;;;;4945147;29;20863;-79
2021/05/03 10:45:13;;;;;;;4.03;3.77;;;14.10;62.50;;;;;;4945991;29;20454;-81
2021/05/03 10:47:41;;;;;;;3.80;3.60;;;14.20;63.00;;;;;;4946759;29;20499;-81
2021/05/03 10:50:42;;;;;;;4.40;4.10;;;14.20;61.00;;;;;;4946564;29;20445;-80
2021/05/03 10:53:27;;;;;;;4.80;4.40;;;14.00;60.70;;;;;;4946622;29;20826;-80
2021/05/03 10:55:56;;;;;;;5.73;4.13;;;13.90;62.30;;;;;;4946318;29;20503;-80
2021/05/03 10:58:22;;;;;;;4.33;3.50;;;14.10;64.50;;;;;;4946955;29;20957;-80
2021/05/03 11:01:00;;;;;;;3.70;3.50;;;14.50;63.10;;;;;;4947107;29;20553;-79
2021/05/03 11:04:04;;;;;;;3.93;3.70;;;14.80;60.00;;;;;;4945969;29;20489;-80
2021/05/03 11:07:04;;;;;;;3.50;3.30;;;15.00;59.90;;;;;;4946144;29;20489;-80
2021/05/03 11:09:35;;;;;;;4.23;3.93;;;15.10;59.50;;;;;;4946262;29;20549;-80
2021/05/03 11:12:23;;;;;;;3.90;3.60;;;15.00;57.20;;;;;;4943798;29;20505;-80
2021/05/03 11:15:13;;;;;;;5.13;4.83;;;14.40;57.00;;;;;;4943723;29;20455;-80
2021/05/03 11:18:21;;;;;;;3.60;3.30;;;14.30;58.10;;;;;;4943755;29;20481;-80
2021/05/03 11:21:16;;;;;;;4.30;2.70;;;14.40;58.30;;;;;;4942853;29;20461;-80
2021/05/03 11:23:43;;;;;;;3.37;3.17;;;13.90;57.80;;;;;;4909817;29;20584;-79
2021/05/03 11:26:23;;;;;;;4.20;3.60;;;13.70;57.50;;;;;;4943644;29;20457;-80
2021/05/03 11:28:50;;;;;;;4.33;3.63;;;13.40;59.00;;;;;;4943479;29;20881;-80
2021/05/03 11:31:19;;;;;;;4.10;3.83;;;13.40;60.10;;;;;;4942769;29;20453;-80
2021/05/03 11:33:55;;;;;;;5.00;4.60;;;13.70;61.40;;;;;;4943375;29;20990;-80
2021/05/03 11:36:24;;;;;;;3.83;3.53;;;14.20;59.70;;;;;;4943277;29;20449;-80
2021/05/03 11:39:04;;;;;;;4.00;3.70;;;14.60;61.60;;;;;;4943874;29;20508;-79
2021/05/03 11:44:49;;;;;;;4.13;3.83;;;14.80;57.20;;;;;;4902045;29;20892;-80
2021/05/03 11:47:15;;;;;;;3.23;2.97;;;14.50;57.70;;;;;;4939082;29;21002;-80
2021/05/03 11:49:45;;;;;;;3.50;3.20;;;14.60;57.90;;;;;;4942732;29;20458;-80
2021/05/03 11:52:12;;;;;;;3.87;3.30;;;14.70;57.70;;;;;;4942206;29;20453;-80
2021/05/03 11:54:42;;;;;;;3.23;3.03;;;14.90;57.80;;;;;;4942975;29;20465;-80
2021/05/03 11:57:10;;;;;;;3.10;2.90;;;15.00;56.60;;;;;;4943155;29;20450;-80
2021/05/03 11:59:37;;;;;;;3.03;2.80;;;15.10;57.60;;;;;;4942735;29;20461;-80
2021/05/03 12:02:06;;;;;;;3.20;2.90;;;15.80;56.70;;;;;;4942388;29;20497;-80
2021/05/03 12:04:37;;;;;;;2.87;2.67;;;16.70;56.60;;;;;;4938838;29;20491;-80
2021/05/03 12:07:15;;;;;;;3.00;2.80;;;17.60;54.40;;;;;;4939046;29;21000;-80
2021/05/03 12:09:43;;;;;;;3.33;3.13;;;17.90;51.50;;;;;;4938899;29;20454;-81
2021/05/03 12:12:10;;;;;;;3.10;2.83;;;18.00;50.40;;;;;;4939170;29;20467;-80
2021/05/03 12:14:47;;;;;;;3.10;2.80;;;17.90;50.00;;;;;;4939062;29;20475;-79
2021/05/03 12:17:19;;;;;;;2.93;2.73;;;17.70;50.20;;;;;;4939732;29;20456;-80
2021/05/03 12:19:46;;;;;;;3.03;2.80;;;17.50;50.10;;;;;;4939928;29;20455;-80
2021/05/03 12:22:12;;;;;;;3.10;2.90;;;17.20;49.30;;;;;;4939064;29;20455;-80
2021/05/03 12:24:41;;;;;;;2.60;2.40;;;17.40;49.30;;;;;;4938833;29;20462;-80
2021/05/03 12:27:08;;;;;;;2.70;2.60;;;17.90;48.90;;;;;;4938558;29;20544;-80
2021/05/03 12:29:37;;;;;;;3.63;3.33;;;18.70;48.90;;;;;;4938955;29;20456;-79
2021/05/03 12:32:09;;;;;;;3.03;2.77;;;19.50;47.50;;;;;;4938777;29;20520;-82
2021/05/03 12:34:40;;;;;;;2.90;2.70;;;19.90;46.00;;;;;;4938847;29;20482;-81
2021/05/03 12:37:08;;;;;;;2.50;2.10;;;19.90;45.10;;;;;;4938841;29;20825;-81
2021/05/03 12:39:36;;;;;;;3.37;3.17;;;19.40;43.00;;;;;;4938929;29;20461;-81
2021/05/03 12:42:16;;;;;;;3.13;2.80;;;18.80;42.60;;;;;;4938492;29;20452;-80
2021/05/03 12:44:47;;;;;;;3.67;3.37;;;18.30;44.70;;;;;;4938780;29;20499;-80
2021/05/03 12:47:30;;;;;;;2.30;2.20;;;17.90;45.30;;;;;;4938407;29;21100;-80
2021/05/03 12:50:03;;;;;;;3.07;2.87;;;17.40;46.00;;;;;;4938476;29;20454;-79
2021/05/03 12:52:37;;;;;;;3.07;2.87;;;16.70;47.00;;;;;;4937640;29;20461;-80
2021/05/03 12:55:10;;;;;;;3.20;2.90;;;16.80;47.10;;;;;;4938011;29;20454;-81
2021/05/03 12:57:51;;;;;;;2.37;2.17;;;17.50;47.70;;;;;;4938186;29;20912;-82
2021/05/03 13:00:21;;;;;;;3.07;2.80;;;18.20;46.20;;;;;;4938492;29;20460;-80
2021/05/03 13:03:08;;;;;;;3.63;2.57;;;18.50;46.80;;;;;;4938360;29;20560;-80
2021/05/03 13:05:39;;;;;;;3.27;2.43;;;18.40;44.80;;;;;;4938678;29;20531;-80
2021/05/03 13:08:13;;;;;;;2.50;2.00;;;18.30;45.30;;;;;;4938680;29;20863;-80
2021/05/03 13:11:15;;;;;;;2.80;2.60;;;18.10;45.30;;;;;;4938048;29;20460;-80
2021/05/03 13:28:03;;;;;;;2.47;2.37;;;17.00;46.00;;;;;;4937141;29;20482;-80
2021/05/03 13:30:30;;;;;;;2.90;2.63;;;16.90;47.40;;;;;;4937622;29;20466;-80
2021/05/03 13:32:56;;;;;;;2.53;2.37;;;17.40;45.50;;;;;;4937732;29;20485;-80